Latest Weather Observations for Kilmore Gap

IDV60801

Issued at 6:52 pm EDT Sunday 28 February 2021 (issued every 10 minutes, with the page automatically refreshed every 10 minutes)

About weather observations | Map of weather stations | Latest weather observations for VIC | Other Formats
Station Details ID: 088162 Name: KILMORE GAP Lat: -37.38 Lon: 144.97 Height: 527.8 m
Data from the previous 72 hours. | See also: Recent months at Kilmore Gap
Date/Time
EDT
Temp
°C
App
Temp
°C
Dew
Point
°C
Rel
Hum
%
Delta-T
°C
Wind Press
QNH
hPa
Press
MSL
hPa
Rain since
9am
mm
Dir  Spd
km/h
Gust
km/h
Spd
kts
Gust
kts
28/06:30pm 25.7 23.2 8.2 33 9.6 SW 11 17 6 9 1010.6 1008.6 0.0
28/06:00pm 26.3 21.5 5.8 27 10.9 WNW 20 32 11 17 1010.5 1008.5 0.0
28/05:30pm 27.3 22.2 6.1 26 11.3 W 22 33 12 18 1010.3 1008.4 0.0
28/05:00pm 27.2 22.2 6.6 27 11.1 NW 22 32 12 17 1010.7 1008.7 0.0
28/04:30pm 27.1 22.6 8.5 31 10.4 NW 22 33 12 18 1011.0 1009.0 0.0
28/04:00pm 27.0 22.6 7.5 29 10.7 NW 20 33 11 18 1011.3 1009.3 0.0
28/03:30pm 26.8 23.2 8.3 31 10.2 W 17 28 9 15 1011.6 1009.7 0.0
28/03:00pm 27.4 23.9 8.8 31 10.4 WNW 17 28 9 15 1012.0 1010.1 0.0
28/02:30pm 26.2 22.2 9.1 34 9.6 NNW 20 32 11 17 1012.6 1010.6 0.0
28/02:00pm 24.6 20.0 8.1 35 9.0 N 22 30 12 16 1012.8 1010.8 0.0
28/01:30pm 25.0 21.6 9.3 37 8.8 NNW 17 30 9 16 1013.1 1011.2 0.0
28/01:00pm 24.2 20.4 9.0 38 8.4 N 19 26 10 14 1013.5 1011.6 0.0
28/12:30pm 24.2 21.6 9.4 39 8.2 NNW 13 22 7 12 1013.9 1012.0 0.0
28/12:00pm 23.7 21.6 9.7 41 7.8 NW 11 19 6 10 1014.0 1012.1 0.0
28/11:30am 22.9 20.1 8.6 40 7.8 N 13 19 7 10 1014.1 1012.2 0.0
28/11:00am 21.8 19.0 8.7 43 7.1 NNW 13 20 7 11 1014.3 1012.4 0.0
28/10:30am 20.6 18.4 9.2 48 6.2 N 11 15 6 8 1014.2 1012.3 0.0
28/10:00am 18.9 16.2 8.8 52 5.4 N 13 17 7 9 1014.2 1012.3 0.0
28/09:30am 17.5 15.1 9.9 61 4.1 NNE 13 17 7 9 1014.1 1012.2 0.0
28/09:00am 16.0 14.2 9.4 65 3.5 NNE 9 13 5 7 1014.0 1012.1 0.0
28/08:30am 14.4 11.4 9.2 71 2.7 NNE 15 17 8 9 1014.1 1012.2 0.0
28/08:00am 13.7 10.9 8.5 71 2.7 N 13 15 7 8 1014.0 1012.1 0.0
28/07:30am 12.5 9.4 8.8 78 1.9 N 15 17 8 9 1013.9 1012.0 0.0
28/07:00am 11.8 8.9 8.1 78 1.9 N 13 15 7 8 1013.6 1011.7 0.0
28/06:30am 12.9 10.4 8.2 73 2.4 N 11 13 6 7 1013.2 1011.3 0.0
28/06:00am 12.8 10.0 8.7 76 2.1 N 13 17 7 9 1013.3 1011.4 0.0
28/05:30am 12.6 10.2 8.5 76 2.1 N 11 15 6 8 1013.4 1011.5 0.0
28/05:00am 12.1 9.7 8.8 80 1.7 ESE 11 13 6 7 1013.1 1011.2 0.0
28/04:30am 11.9 9.5 8.6 80 1.7 ESE 11 13 6 7 1013.2 1011.3 0.0
28/04:00am 12.0 10.0 8.8 81 1.6 ESE 9 11 5 6 1013.6 1011.7 0.0
28/03:30am 11.5 9.1 8.5 82 1.5 SE 11 13 6 7 1013.4 1011.5 0.0
28/03:00am 11.2 8.2 9.3 88 1.0 SE 15 17 8 9 1013.2 1011.3 0.0
28/02:30am 11.0 8.1 9.6 91 0.7 SSE 15 17 8 9 1013.4 1011.5 0.0
28/02:00am 10.7 6.9 9.8 94 0.5 SSE 20 22 11 12 1013.3 1011.4 0.0
28/01:30am 10.8 7.2 9.9 94 0.5 SSE 19 20 10 11 1013.6 1011.7 0.0
28/01:00am 11.0 8.2 9.9 93 0.6 SSE 15 17 8 9 1014.0 1012.1 0.0
28/12:30am 11.0 8.9 9.9 93 0.6 S 11 15 6 8 1014.2 1012.3 0.0
28/12:00am 11.1 7.8 9.5 90 0.8 SSE 17 19 9 10 1014.1 1012.2 0.0
 
Date/Time
EDT
Temp
°C
App
Temp
°C
Dew
Point
°C
Rel
Hum
%
Delta-T
°C
Wind Press
QNH
hPa
Press
MSL
hPa
Rain since
9am
mm
Dir  Spd
km/h
Gust
km/h
Spd
kts
Gust
kts
27/11:30pm 11.1 7.4 9.4 89 0.9 SSE 19 20 10 11 1014.2 1012.3 0.0
27/11:00pm 11.6 8.7 9.7 88 1.0 SSE 15 19 8 10 1014.6 1012.6 0.0
27/10:30pm 11.3 7.6 9.4 88 1.0 SSE 19 20 10 11 1014.3 1012.4 0.0
27/10:00pm 11.5 7.8 9.6 88 1.0 SSE 19 20 10 11 1014.3 1012.4 0.0
27/09:30pm 11.7 8.5 9.8 88 1.0 SSE 17 19 9 10 1014.2 1012.3 0.0
27/09:00pm 11.9 8.6 9.6 86 1.2 SSE 17 24 9 13 1013.9 1012.0 0.0
27/08:30pm 12.4 9.2 9.8 84 1.4 SSE 17 20 9 11 1013.8 1011.9 0.0
27/08:00pm 12.7 9.0 9.5 81 1.7 SSE 19 24 10 13 1013.6 1011.7 0.0
27/07:30pm 13.4 8.8 9.6 78 2.0 SSE 24 30 13 16 1013.4 1011.5 0.0
27/07:00pm 14.3 10.1 9.7 74 2.4 SSE 22 30 12 16 1013.2 1011.3 0.0
27/06:30pm 15.8 12.0 9.9 68 3.2 SSE 20 28 11 15 1013.1 1011.2 0.0
27/06:00pm 16.2 11.6 9.8 66 3.4 S 24 30 13 16 1012.8 1010.8 0.0
27/05:30pm 18.4 16.2 7.8 50 5.6 SSW 9 15 5 8 1012.7 1010.7 0.0
27/05:00pm 18.2 16.4 7.3 49 5.6 WNW 6 11 3 6 1012.7 1010.7 0.0
27/04:30pm 18.2 16.9 7.6 50 5.5 N 4 13 2 7 1012.7 1010.7 0.0
27/04:00pm 17.3 15.7 7.9 54 4.9 WNW 6 13 3 7 1012.9 1010.9 0.0
27/03:30pm 16.6 13.5 8.8 60 4.1 N 15 19 8 10 1013.2 1011.3 0.0
27/03:00pm 16.6 15.1 9.1 61 4.0 N 7 15 4 8 1013.3 1011.4 0.0
27/02:30pm 16.3 14.5 8.0 58 4.3 W 7 11 4 6 1013.5 1011.6 0.0
27/02:00pm 16.0 14.9 8.5 61 3.9 N 4 7 2 4 1013.5 1011.6 0.0
27/01:30pm 15.8 14.8 8.8 63 3.7 W 4 11 2 6 1013.8 1011.9 0.0
27/01:00pm 15.4 13.9 9.1 66 3.3 WNW 7 13 4 7 1013.9 1012.0 0.0
27/12:30pm 15.1 13.5 8.8 66 3.3 W 7 13 4 7 1014.0 1012.1 0.0
27/12:00pm 13.9 12.9 8.9 72 2.6 SW 4 9 2 5 1014.0 1012.1 0.0
27/11:30am 13.6 12.4 9.6 77 2.1 S 6 9 3 5 1014.2 1012.3 0.0
27/11:00am 12.1 10.2 9.1 82 1.5 S 9 11 5 6 1014.1 1012.2 0.0
27/10:30am 11.4 9.4 8.6 83 1.4 S 9 15 5 8 1014.0 1012.1 0.0
27/10:00am 10.9 8.9 8.5 85 1.2 SW 9 13 5 7 1014.2 1012.3 0.0
27/09:30am 10.3 8.2 8.1 86 1.1 SW 9 13 5 7 1014.1 1012.2 0.0
27/09:00am 10.0 7.4 7.9 87 1.0 SSW 11 15 6 8 1013.5 1011.6 0.2
27/08:30am 9.4 6.4 7.7 89 0.8 SSW 13 15 7 8 1013.5 1011.6 0.2
27/08:00am 8.9 5.8 7.2 89 0.8 S 13 17 7 9 1013.2 1011.3 0.2
27/07:30am 8.7 5.5 7.0 89 0.8 SSW 13 15 7 8 1013.3 1011.4 0.2
27/07:00am 8.7 5.5 7.0 89 0.8 S 13 17 7 9 1013.1 1011.2 0.2
27/06:30am 8.4 4.5 6.9 90 0.7 S 17 20 9 11 1012.6 1010.6 0.2
27/06:00am 8.5 4.6 7.1 91 0.7 S 17 20 9 11 1013.0 1011.1 0.2
27/05:30am 8.4 3.2 7.2 92 0.6 S 24 30 13 16 1012.9 1010.9 0.2
27/05:00am 8.3 3.4 7.1 92 0.6 S 22 28 12 15 1012.7 1010.7 0.2
27/04:30am 8.4 3.1 7.0 91 0.7 S 24 28 13 15 1013.0 1011.1 0.2
27/04:00am 8.5 3.3 7.3 92 0.6 S 24 30 13 16 1013.1 1011.2 0.2
27/03:30am 8.4 2.5 7.3 93 0.5 S 28 32 15 17 1013.0 1011.1 0.2
27/03:00am 8.4 2.9 7.5 94 0.4 S 26 32 14 17 1013.3 1011.4 0.2
27/02:30am 8.5 2.6 7.7 95 0.4 S 28 33 15 18 1013.5 1011.6 0.2
27/02:00am 8.5 1.7 7.7 95 0.4 S 33 41 18 22 1013.4 1011.5 0.2
27/01:30am 8.4 1.7 7.5 94 0.4 S 32 37 17 20 1013.7 1011.8 0.2
27/01:00am 8.6 1.9 7.2 91 0.7 SSE 32 37 17 20 1013.7 1011.8 0.2
27/12:30am 8.6 1.8 6.9 89 0.8 SSE 32 37 17 20 1013.9 1012.0 0.2
27/12:00am 9.2 2.4 7.0 86 1.1 SSE 32 41 17 22 1014.2 1012.3 0.2
 
Date/Time
EDT
Temp
°C
App
Temp
°C
Dew
Point
°C
Rel
Hum
%
Delta-T
°C
Wind Press
QNH
hPa
Press
MSL
hPa
Rain since
9am
mm
Dir  Spd
km/h
Gust
km/h
Spd
kts
Gust
kts
26/11:30pm 9.3 2.5 7.1 86 1.1 SSE 32 41 17 22 1014.0 1012.1 0.2
26/11:00pm 9.6 2.9 7.2 85 1.2 SSE 32 41 17 22 1014.1 1012.2 0.2
26/10:30pm 9.6 2.9 7.2 85 1.2 SSE 32 37 17 20 1014.6 1012.6 0.2
26/10:00pm 9.9 3.2 7.2 83 1.3 S 32 39 17 21 1014.6 1012.6 0.2
26/09:30pm 10.4 4.5 7.3 81 1.5 S 28 41 15 22 1014.3 1012.4 0.2
26/09:00pm 10.6 6.2 7.3 80 1.6 S 20 32 11 17 1014.2 1012.3 0.2
26/08:30pm 10.9 5.6 7.0 77 1.9 S 24 37 13 20 1013.8 1011.9 0.2
26/08:00pm 11.7 5.7 7.0 73 2.3 S 28 39 15 21 1013.3 1011.4 0.2
26/07:30pm 12.5 6.4 6.8 68 2.8 S 28 37 15 20 1013.3 1011.4 0.2
26/07:00pm 13.3 8.8 6.9 65 3.2 SSW 20 35 11 19 1013.5 1011.6 0.2
26/06:30pm 14.3 8.6 6.6 60 3.8 S 26 39 14 21 1013.4 1011.5 0.2
26/06:00pm 14.9 7.5 6.7 58 4.1 S 35 48 19 26 1012.8 1010.8 0.2
26/05:31pm 15.4 9.3 6.7 56 4.4 S 28 46 15 25 1013.1 1011.2 0.2
26/05:30pm 15.5 9.1 6.8 56 4.4 S 30 46 16 25 1013.1 1011.2 0.2
26/05:05pm 15.6 9.5 6.6 55 4.5 S 28 46 15 25 1013.0 1011.1 0.2
26/05:00pm 15.4 8.8 6.2 54 4.6 S 30 43 16 23 1013.0 1011.1 0.2
26/04:30pm 15.7 8.6 6.2 53 4.7 S 33 44 18 24 1013.0 1011.1 0.2
26/04:03pm 16.3 9.4 6.4 52 5.0 SSE 32 50 17 27 1013.1 1011.2 0.2
26/04:00pm 16.5 9.7 6.9 53 4.9 S 32 46 17 25 1013.2 1011.3 0.2
26/03:30pm 15.5 10.3 7.3 58 4.2 S 24 39 13 21 1013.6 1011.7 0.0
26/03:00pm 16.0 8.7 7.2 56 4.5 S 35 54 19 29 1013.5 1011.6 0.0
26/02:30pm 16.6 9.9 7.5 55 4.7 S 32 56 17 30 1013.7 1011.8 0.0
26/02:00pm 15.4 8.4 6.9 57 4.3 SSE 33 46 18 25 1013.8 1011.9 0.0
26/01:30pm 15.0 8.2 7.1 59 4.0 SSE 32 43 17 23 1014.3 1012.4 0.0
26/01:00pm 13.0 7.6 8.1 72 2.5 SSE 26 35 14 19 1015.1 1013.2 0.0
26/12:30pm 12.5 8.1 7.4 71 2.5 SSE 20 28 11 15 1015.5 1013.6 0.0
26/12:00pm 12.2 6.8 6.5 68 2.8 S 24 35 13 19 1015.5 1013.6 0.0
26/11:30am 12.9 7.6 8.6 75 2.2 S 26 35 14 19 1015.2 1013.3 0.0
26/11:00am 11.2 7.0 7.3 77 1.9 S 19 30 10 16 1015.5 1013.6 0.0
26/10:30am 10.9 7.0 7.0 77 1.9 SSW 17 30 9 16 1015.2 1013.3 0.0
26/10:00am 10.6 6.5 7.7 82 1.4 SSW 19 26 10 14 1014.8 1012.9 0.0
26/09:30am 10.1 5.9 7.3 83 1.4 SSW 19 28 10 15 1014.6 1012.6 0.0
26/09:00am 9.6 5.7 7.2 85 1.2 SSW 17 24 9 13 1014.7 1012.8 0.0
26/08:30am 9.1 3.7 6.5 84 1.2 SSW 24 32 13 17 1013.9 1012.0 0.0
26/08:00am 9.2 4.7 6.8 85 1.2 SSW 20 37 11 20 1013.6 1011.7 0.0
26/07:30am 8.4 3.8 6.5 88 0.9 SSW 20 30 11 16 1013.3 1011.4 0.0
26/07:00am 7.8 3.3 6.9 94 0.4 SSW 20 30 11 16 1012.8 1010.8 0.0
26/06:30am 7.5 3.3 7.4 99 0.0 SSW 19 26 10 14 1012.5 1010.5 0.0
26/06:00am 7.6 3.4 7.5 99 0.0 SSW 19 28 10 15 1012.3 1010.4 0.0
26/05:30am 7.7 3.3 7.6 99 0.0 SSW 20 28 11 15 1012.1 1010.2 0.0
26/05:00am 8.0 3.3 7.9 99 0.0 SSW 22 32 12 17 1012.0 1010.1 0.0
26/04:30am 8.2 3.6 8.1 99 0.0 SSW 22 32 12 17 1011.8 1009.9 0.0
26/04:00am 8.2 3.6 8.1 99 0.0 SSW 22 33 12 18 1011.8 1009.9 0.0
26/03:30am 8.4 3.8 8.3 99 0.0 SSW 22 35 12 19 1012.0 1010.1 0.0
26/03:29am 8.4 3.8 8.3 99 0.0 SSW 22 35 12 19 1012.0 1010.1 0.0
26/03:14am 8.6 4.1 8.5 99 0.0 SSW 22 32 12 17 1012.1 1010.2 0.0
26/03:00am 9.0 4.6 8.9 99 0.1 SW 22 28 12 15 1012.3 1010.4 0.0
26/02:43am 9.4 6.0 9.3 99 0.1 SSW 17 20 9 11 1012.6 1010.6 0.0
26/02:39am 9.3 6.3 9.2 99 0.1 SSW 15 20 8 11 1012.7 1010.7 0.0
26/02:30am 9.4 6.4 9.3 99 0.1 SSW 15 19 8 10 1012.7 1010.7 0.0
26/02:00am 9.5 6.5 9.4 99 0.1 SSW 15 22 8 12 1012.8 1010.8 0.0
26/01:30am 9.2 5.4 9.2 100 0.0 SSW 19 30 10 16 1012.9 1010.9 0.0
26/01:28am 9.2 5.2 9.2 100 0.0 SSW 20 30 11 16 1012.9 1010.9 0.0
26/01:21am 9.3 5.6 9.3 100 0.0 SSW 19 26 10 14 1012.9 1010.9 0.0
26/01:00am 9.8 6.2 9.8 100 0.0 SSW 19 28 10 15 1013.1 1011.2 0.0
26/12:30am 10.4 6.8 10.4 100 0.0 SSW 20 30 11 16 1013.0 1011.1 0.0
26/12:00am 10.8 7.5 10.8 100 0.0 SSW 19 28 10 15 1013.0 1011.1 0.0
 
Date/Time
EDT
Temp
°C
App
Temp
°C
Dew
Point
°C
Rel
Hum
%
Delta-T
°C
Wind Press
QNH
hPa
Press
MSL
hPa
Rain since
9am
mm
Dir  Spd
km/h
Gust
km/h
Spd
kts
Gust
kts
25/11:30pm 10.9 7.4 10.9 100 0.0 SSW 20 30 11 16 1013.0 1011.1 0.0
25/11:00pm 11.0 7.5 11.0 100 0.0 SW 20 30 11 16 1013.1 1011.2 0.0
25/10:30pm 11.0 7.5 10.8 99 0.1 SW 20 30 11 16 1013.2 1011.3 0.0
25/10:00pm 11.7 8.3 11.4 98 0.2 SSW 20 33 11 18 1013.0 1011.1 0.0
25/09:56pm 11.8 8.4 11.3 97 0.3 SSW 20 35 11 19 1013.0 1011.1 0.0
25/09:30pm 12.3 8.0 10.9 91 0.8 SSW 24 44 13 24 1012.8 1010.8 0.0
25/09:18pm 12.5 8.6 10.7 89 1.0 SSW 22 39 12 21 1012.6 1010.6 0.0
25/09:00pm 14.2 10.5 10.0 76 2.2 SSW 20 33 11 18 1012.1 1010.2 0.0
25/08:30pm 14.9 10.4 9.9 72 2.7 SSW 24 35 13 19 1011.6 1009.7 0.0
25/08:00pm 15.9 11.7 9.8 67 3.3 SSW 22 39 12 21 1011.3 1009.3 0.0
25/07:30pm 17.2 12.2 8.1 55 4.8 SW 24 35 13 19 1010.7 1008.7 0.0
25/07:00pm 18.4 14.0 7.2 48 5.8 SW 20 33 11 18 1010.3 1008.4 0.0

Other formats

Comma delimited format used in spreadsheet applications
http://www.bom.gov.au/fwo/IDV60801/IDV60801.94860.axf

JavaScript Object Notation format (JSON) in row-major order
http://www.bom.gov.au/fwo/IDV60801/IDV60801.94860.json

Data quality

Most of these data are generated automatically and are frequently updated. Quality checks on data are not normally performed. It is possible for incorrect values to appear. Refer to information at About Latest Weather Observations and please check the disclaimer before using these data.